METAR AND TAF INFORMATION
METAR FOR LFMY
ADDS - METARS form results

(0215 UTC 07 October 2022)
Data provider http://aviationweather.gov/metar/data/
 
METAR text: LFMY 070200Z AUTO 00000KT CAVOK 13/12 Q1026
Conditions at: LFMY (SALON (FAFB) , FR) observed 0200 UTC 07 October 2022
Temperature: 13.0°C (55°F)
Dewpoint: 12.0°C (54°F) [RH = 94%]
Pressure (altimeter): 30.30 inches Hg (1026.0 mb)
Winds: calm
Visibility: 6 or more miles (10+ km)
Ceiling: ceiling and visibility are OK
Clouds: unknown
Weather: no significant weather observed at this time

METAR text: LFMY 070130Z AUTO 00000KT CAVOK 13/12 Q1026
Conditions at: LFMY (SALON (FAFB) , FR) observed 0130 UTC 07 October 2022
Temperature: 13.0°C (55°F)
Dewpoint: 12.0°C (54°F) [RH = 94%]
Pressure (altimeter): 30.30 inches Hg (1026.0 mb)
Winds: calm
Visibility: 6 or more miles (10+ km)
Ceiling: ceiling and visibility are OK
Clouds: unknown
Weather: no significant weather observed at this time

 AIRPORT MAP

 RUNWAY INFORMATION
Runway 09 Runway length 0 ft Runway width 0 ft
Runway elevation 197 ft Runway displaced threshold 0 ft Runway heading 0
Runway 27 Runway length 0 ft Runway width 0 ft
Runway elevation 197 ft Runway displaced threshold 0 ft Runway heading 0
Runway 16 Runway length 6565 ft Runway width 148 ft
Runway elevation 195 ft Runway displaced threshold 0 ft Runway heading 160
Runway 34 Runway length 6565 ft Runway width 148 ft
Runway elevation 191 ft Runway displaced threshold 0 ft Runway heading 340
Runway 17L Runway length 0 ft Runway width 0 ft
Runway elevation 197 ft Runway displaced threshold 0 ft Runway heading 0
Runway 35R Runway length 0 ft Runway width 0 ft
Runway elevation 197 ft Runway displaced threshold 0 ft Runway heading 0
Runway 17R Runway length 0 ft Runway width 0 ft
Runway elevation 197 ft Runway displaced threshold 0 ft Runway heading 0
Runway 35L Runway length 0 ft Runway width 0 ft
Runway elevation 197 ft Runway displaced threshold 0 ft Runway heading 0

 AIRPORT FREQUENCIES
Type APP Name APP Frequency 135.15 MHZ
Type DEP Name DEP Frequency 25.955 MHZ
Type TWR Name TWR Frequency 122.1 MHZ

 AIRPORT NEAR NAVIGATION AIDS
Type TACAN Name Salon Frequency 115150 KHZ
Type NDB Name Salon Frequency 334 KHZ



Powered by Virtual Airlines Manager [v2.6.2]